sensor_id;sensor_type;location;lat;lon;timestamp;P1;durP1;ratioP1;P2;durP2;ratioP2
5616;SDS011;2830;50.656;7.568;2022-10-18T00:00:09;20.00;;;6.13;;
5616;SDS011;2830;50.656;7.568;2022-10-18T00:02:36;15.30;;;5.50;;
5616;SDS011;2830;50.656;7.568;2022-10-18T00:05:03;23.17;;;7.43;;
5616;SDS011;2830;50.656;7.568;2022-10-18T00:07:31;22.60;;;6.83;;
5616;SDS011;2830;50.656;7.568;2022-10-18T00:09:58;15.37;;;5.43;;
5616;SDS011;2830;50.656;7.568;2022-10-18T00:12:24;16.00;;;6.10;;
5616;SDS011;2830;50.656;7.568;2022-10-18T00:14:51;25.00;;;6.65;;
5616;SDS011;2830;50.656;7.568;2022-10-18T00:17:18;18.40;;;5.17;;
5616;SDS011;2830;50.656;7.568;2022-10-18T00:19:44;14.40;;;5.70;;
5616;SDS011;2830;50.656;7.568;2022-10-18T00:22:11;13.83;;;6.03;;
5616;SDS011;2830;50.656;7.568;2022-10-18T00:24:38;17.40;;;6.30;;
5616;SDS011;2830;50.656;7.568;2022-10-18T00:27:05;15.50;;;6.10;;
5616;SDS011;2830;50.656;7.568;2022-10-18T00:29:31;14.50;;;5.10;;
5616;SDS011;2830;50.656;7.568;2022-10-18T00:31:58;17.60;;;5.90;;
5616;SDS011;2830;50.656;7.568;2022-10-18T00:34:25;19.43;;;7.60;;
5616;SDS011;2830;50.656;7.568;2022-10-18T00:36:51;17.70;;;7.32;;
5616;SDS011;2830;50.656;7.568;2022-10-18T00:39:19;17.40;;;8.13;;
5616;SDS011;2830;50.656;7.568;2022-10-18T00:41:47;24.40;;;8.50;;
5616;SDS011;2830;50.656;7.568;2022-10-18T00:46:44;25.67;;;7.37;;
5616;SDS011;2830;50.656;7.568;2022-10-18T00:49:18;16.50;;;5.95;;
5616;SDS011;2830;50.656;7.568;2022-10-18T00:51:49;20.98;;;7.80;;
5616;SDS011;2830;50.656;7.568;2022-10-18T00:54:21;14.70;;;6.20;;
5616;SDS011;2830;50.656;7.568;2022-10-18T00:56:48;15.20;;;6.47;;
5616;SDS011;2830;50.656;7.568;2022-10-18T00:59:16;19.30;;;8.23;;
5616;SDS011;2830;50.656;7.568;2022-10-18T01:01:44;17.27;;;7.20;;
5616;SDS011;2830;50.656;7.568;2022-10-18T01:04:14;17.30;;;8.07;;
5616;SDS011;2830;50.656;7.568;2022-10-18T01:09:29;16.07;;;6.50;;
5616;SDS011;2830;50.656;7.568;2022-10-18T01:14:45;17.60;;;7.87;;
5616;SDS011;2830;50.656;7.568;2022-10-18T01:23:16;17.13;;;6.00;;
5616;SDS011;2830;50.656;7.568;2022-10-18T01:28:52;15.37;;;6.00;;
5616;SDS011;2830;50.656;7.568;2022-10-18T01:31:42;16.60;;;6.10;;
5616;SDS011;2830;50.656;7.568;2022-10-18T01:34:25;15.77;;;5.90;;
5616;SDS011;2830;50.656;7.568;2022-10-18T01:36:56;18.15;;;6.35;;
5616;SDS011;2830;50.656;7.568;2022-10-18T01:39:27;15.17;;;6.40;;
5616;SDS011;2830;50.656;7.568;2022-10-18T01:41:57;19.10;;;6.87;;
5616;SDS011;2830;50.656;7.568;2022-10-18T01:44:28;18.60;;;8.90;;
5616;SDS011;2830;50.656;7.568;2022-10-18T01:46:57;17.73;;;7.03;;
5616;SDS011;2830;50.656;7.568;2022-10-18T01:49:25;17.67;;;8.33;;
5616;SDS011;2830;50.656;7.568;2022-10-18T01:51:52;16.23;;;7.30;;
5616;SDS011;2830;50.656;7.568;2022-10-18T01:54:20;19.97;;;6.80;;
5616;SDS011;2830;50.656;7.568;2022-10-18T01:56:54;19.20;;;8.30;;
5616;SDS011;2830;50.656;7.568;2022-10-18T02:02:26;16.80;;;6.60;;
5616;SDS011;2830;50.656;7.568;2022-10-18T02:07:54;14.90;;;6.60;;
5616;SDS011;2830;50.656;7.568;2022-10-18T02:10:55;17.40;;;7.00;;
5616;SDS011;2830;50.656;7.568;2022-10-18T02:13:42;15.83;;;7.57;;
5616;SDS011;2830;50.656;7.568;2022-10-18T02:16:27;16.90;;;7.20;;
5616;SDS011;2830;50.656;7.568;2022-10-18T02:19:01;16.63;;;6.90;;
5616;SDS011;2830;50.656;7.568;2022-10-18T02:21:36;17.10;;;6.20;;
5616;SDS011;2830;50.656;7.568;2022-10-18T02:24:06;17.73;;;7.10;;
5616;SDS011;2830;50.656;7.568;2022-10-18T02:26:34;15.50;;;7.10;;
5616;SDS011;2830;50.656;7.568;2022-10-18T02:29:01;21.80;;;8.47;;
5616;SDS011;2830;50.656;7.568;2022-10-18T02:31:46;20.30;;;7.82;;
5616;SDS011;2830;50.656;7.568;2022-10-18T02:36:58;18.20;;;8.13;;
5616;SDS011;2830;50.656;7.568;2022-10-18T02:39:30;19.50;;;9.10;;
5616;SDS011;2830;50.656;7.568;2022-10-18T02:41:59;19.60;;;10.07;;
5616;SDS011;2830;50.656;7.568;2022-10-18T02:44:32;20.37;;;8.90;;
5616;SDS011;2830;50.656;7.568;2022-10-18T02:47:02;21.30;;;9.33;;
5616;SDS011;2830;50.656;7.568;2022-10-18T02:49:29;23.37;;;10.20;;
5616;SDS011;2830;50.656;7.568;2022-10-18T02:51:57;20.13;;;9.73;;
5616;SDS011;2830;50.656;7.568;2022-10-18T02:54:24;22.97;;;11.40;;
5616;SDS011;2830;50.656;7.568;2022-10-18T02:56:51;19.87;;;9.40;;
5616;SDS011;2830;50.656;7.568;2022-10-18T02:59:17;19.17;;;8.38;;
5616;SDS011;2830;50.656;7.568;2022-10-18T03:01:44;17.57;;;7.07;;
5616;SDS011;2830;50.656;7.568;2022-10-18T03:04:11;15.87;;;7.73;;
5616;SDS011;2830;50.656;7.568;2022-10-18T03:06:37;18.30;;;7.53;;
5616;SDS011;2830;50.656;7.568;2022-10-18T03:09:04;17.60;;;8.23;;
5616;SDS011;2830;50.656;7.568;2022-10-18T03:11:32;19.90;;;8.70;;
5616;SDS011;2830;50.656;7.568;2022-10-18T03:13:58;16.63;;;7.43;;
5616;SDS011;2830;50.656;7.568;2022-10-18T03:16:25;16.40;;;7.47;;
5616;SDS011;2830;50.656;7.568;2022-10-18T03:18:51;21.57;;;8.33;;
5616;SDS011;2830;50.656;7.568;2022-10-18T03:21:18;17.13;;;8.90;;
5616;SDS011;2830;50.656;7.568;2022-10-18T03:23:45;18.00;;;8.70;;
5616;SDS011;2830;50.656;7.568;2022-10-18T03:26:11;19.70;;;8.97;;
5616;SDS011;2830;50.656;7.568;2022-10-18T03:28:38;17.35;;;7.68;;
5616;SDS011;2830;50.656;7.568;2022-10-18T03:31:05;16.27;;;7.80;;
5616;SDS011;2830;50.656;7.568;2022-10-18T03:33:31;18.00;;;8.67;;
5616;SDS011;2830;50.656;7.568;2022-10-18T03:35:58;20.27;;;9.10;;
5616;SDS011;2830;50.656;7.568;2022-10-18T03:38:25;23.03;;;10.53;;
5616;SDS011;2830;50.656;7.568;2022-10-18T03:40:52;27.43;;;12.33;;
5616;SDS011;2830;50.656;7.568;2022-10-18T03:43:19;21.77;;;10.80;;
5616;SDS011;2830;50.656;7.568;2022-10-18T03:45:45;19.53;;;8.80;;
5616;SDS011;2830;50.656;7.568;2022-10-18T03:48:12;20.23;;;10.27;;
5616;SDS011;2830;50.656;7.568;2022-10-18T03:50:39;24.23;;;11.13;;
5616;SDS011;2830;50.656;7.568;2022-10-18T03:53:05;19.30;;;9.93;;
5616;SDS011;2830;50.656;7.568;2022-10-18T03:55:32;24.30;;;10.93;;
5616;SDS011;2830;50.656;7.568;2022-10-18T03:57:59;33.67;;;13.50;;
5616;SDS011;2830;50.656;7.568;2022-10-18T04:00:25;27.27;;;11.50;;
5616;SDS011;2830;50.656;7.568;2022-10-18T04:02:52;27.50;;;12.27;;
5616;SDS011;2830;50.656;7.568;2022-10-18T04:05:21;29.43;;;13.77;;
5616;SDS011;2830;50.656;7.568;2022-10-18T04:07:56;28.17;;;12.77;;
5616;SDS011;2830;50.656;7.568;2022-10-18T04:10:23;30.50;;;13.70;;
5616;SDS011;2830;50.656;7.568;2022-10-18T04:12:49;33.57;;;13.37;;
5616;SDS011;2830;50.656;7.568;2022-10-18T04:15:16;27.53;;;11.13;;
5616;SDS011;2830;50.656;7.568;2022-10-18T04:17:43;26.30;;;10.87;;
5616;SDS011;2830;50.656;7.568;2022-10-18T04:20:10;30.53;;;12.03;;
5616;SDS011;2830;50.656;7.568;2022-10-18T04:22:39;26.33;;;10.85;;
5616;SDS011;2830;50.656;7.568;2022-10-18T04:25:06;21.90;;;9.10;;
5616;SDS011;2830;50.656;7.568;2022-10-18T04:27:35;22.67;;;9.00;;
5616;SDS011;2830;50.656;7.568;2022-10-18T04:30:01;21.02;;;8.10;;
5616;SDS011;2830;50.656;7.568;2022-10-18T04:32:29;16.43;;;5.87;;
5616;SDS011;2830;50.656;7.568;2022-10-18T04:34:55;18.27;;;6.73;;
5616;SDS011;2830;50.656;7.568;2022-10-18T04:37:22;17.90;;;6.63;;
5616;SDS011;2830;50.656;7.568;2022-10-18T04:39:49;16.30;;;5.20;;
5616;SDS011;2830;50.656;7.568;2022-10-18T04:42:19;19.50;;;7.30;;
5616;SDS011;2830;50.656;7.568;2022-10-18T04:44:46;15.30;;;4.15;;
5616;SDS011;2830;50.656;7.568;2022-10-18T04:47:12;16.93;;;6.23;;
5616;SDS011;2830;50.656;7.568;2022-10-18T04:49:39;17.43;;;5.53;;
5616;SDS011;2830;50.656;7.568;2022-10-18T04:52:06;16.40;;;5.70;;
5616;SDS011;2830;50.656;7.568;2022-10-18T04:54:33;20.27;;;5.17;;
5616;SDS011;2830;50.656;7.568;2022-10-18T04:56:59;18.40;;;6.00;;
5616;SDS011;2830;50.656;7.568;2022-10-18T04:59:26;17.38;;;6.35;;
5616;SDS011;2830;50.656;7.568;2022-10-18T05:01:53;21.03;;;6.97;;
5616;SDS011;2830;50.656;7.568;2022-10-18T05:04:19;17.63;;;5.43;;
5616;SDS011;2830;50.656;7.568;2022-10-18T05:06:46;19.30;;;5.80;;
5616;SDS011;2830;50.656;7.568;2022-10-18T05:09:13;18.70;;;5.80;;
5616;SDS011;2830;50.656;7.568;2022-10-18T05:11:40;18.47;;;5.80;;
5616;SDS011;2830;50.656;7.568;2022-10-18T05:14:06;19.83;;;6.27;;
5616;SDS011;2830;50.656;7.568;2022-10-18T05:16:35;19.42;;;5.72;;
5616;SDS011;2830;50.656;7.568;2022-10-18T05:19:03;16.67;;;5.37;;
5616;SDS011;2830;50.656;7.568;2022-10-18T05:21:31;16.60;;;4.97;;
5616;SDS011;2830;50.656;7.568;2022-10-18T05:23:58;20.07;;;6.00;;
5616;SDS011;2830;50.656;7.568;2022-10-18T05:26:25;17.23;;;5.50;;
5616;SDS011;2830;50.656;7.568;2022-10-18T05:28:51;16.67;;;5.87;;
5616;SDS011;2830;50.656;7.568;2022-10-18T05:31:18;18.70;;;5.77;;
5616;SDS011;2830;50.656;7.568;2022-10-18T05:33:45;16.40;;;5.93;;
5616;SDS011;2830;50.656;7.568;2022-10-18T05:36:11;16.97;;;4.80;;
5616;SDS011;2830;50.656;7.568;2022-10-18T05:38:41;16.73;;;4.27;;
5616;SDS011;2830;50.656;7.568;2022-10-18T05:41:09;16.60;;;4.20;;
5616;SDS011;2830;50.656;7.568;2022-10-18T05:43:36;17.40;;;5.20;;
5616;SDS011;2830;50.656;7.568;2022-10-18T05:46:03;18.13;;;4.67;;
5616;SDS011;2830;50.656;7.568;2022-10-18T05:48:40;15.60;;;4.40;;
5616;SDS011;2830;50.656;7.568;2022-10-18T05:51:08;15.40;;;4.63;;
5616;SDS011;2830;50.656;7.568;2022-10-18T05:53:35;16.77;;;4.60;;
5616;SDS011;2830;50.656;7.568;2022-10-18T05:56:03;17.53;;;5.07;;
5616;SDS011;2830;50.656;7.568;2022-10-18T05:58:31;16.13;;;3.93;;
5616;SDS011;2830;50.656;7.568;2022-10-18T06:00:59;18.53;;;4.63;;
5616;SDS011;2830;50.656;7.568;2022-10-18T06:03:28;15.43;;;4.70;;
5616;SDS011;2830;50.656;7.568;2022-10-18T06:06:02;15.13;;;4.00;;
5616;SDS011;2830;50.656;7.568;2022-10-18T06:08:31;19.30;;;5.73;;
5616;SDS011;2830;50.656;7.568;2022-10-18T06:10:58;18.20;;;5.80;;
5616;SDS011;2830;50.656;7.568;2022-10-18T06:13:24;16.73;;;5.07;;
5616;SDS011;2830;50.656;7.568;2022-10-18T06:15:55;17.13;;;5.35;;
5616;SDS011;2830;50.656;7.568;2022-10-18T06:18:24;17.60;;;4.73;;
5616;SDS011;2830;50.656;7.568;2022-10-18T06:20:57;16.38;;;4.78;;
5616;SDS011;2830;50.656;7.568;2022-10-18T06:23:27;13.83;;;4.10;;
5616;SDS011;2830;50.656;7.568;2022-10-18T06:26:01;17.90;;;4.50;;
5616;SDS011;2830;50.656;7.568;2022-10-18T06:28:32;13.60;;;3.70;;
5616;SDS011;2830;50.656;7.568;2022-10-18T06:31:00;15.40;;;4.17;;
5616;SDS011;2830;50.656;7.568;2022-10-18T06:33:27;14.47;;;4.10;;
5616;SDS011;2830;50.656;7.568;2022-10-18T06:35:56;14.73;;;3.37;;
5616;SDS011;2830;50.656;7.568;2022-10-18T06:38:28;16.13;;;4.27;;
5616;SDS011;2830;50.656;7.568;2022-10-18T06:40:55;20.20;;;3.73;;
5616;SDS011;2830;50.656;7.568;2022-10-18T06:43:23;14.83;;;3.80;;
5616;SDS011;2830;50.656;7.568;2022-10-18T06:45:50;17.33;;;4.60;;
5616;SDS011;2830;50.656;7.568;2022-10-18T06:48:18;18.20;;;4.37;;
5616;SDS011;2830;50.656;7.568;2022-10-18T06:50:53;19.07;;;6.73;;
5616;SDS011;2830;50.656;7.568;2022-10-18T06:53:22;19.53;;;5.90;;
5616;SDS011;2830;50.656;7.568;2022-10-18T06:55:49;20.13;;;6.03;;
5616;SDS011;2830;50.656;7.568;2022-10-18T06:58:16;16.20;;;5.50;;
5616;SDS011;2830;50.656;7.568;2022-10-18T07:00:43;15.23;;;4.90;;
5616;SDS011;2830;50.656;7.568;2022-10-18T07:03:10;16.47;;;5.30;;
5616;SDS011;2830;50.656;7.568;2022-10-18T07:05:37;15.13;;;4.70;;
5616;SDS011;2830;50.656;7.568;2022-10-18T07:08:04;16.87;;;5.13;;
5616;SDS011;2830;50.656;7.568;2022-10-18T07:10:30;17.60;;;5.60;;
5616;SDS011;2830;50.656;7.568;2022-10-18T07:12:57;15.60;;;5.30;;
5616;SDS011;2830;50.656;7.568;2022-10-18T07:15:44;16.53;;;5.43;;
5616;SDS011;2830;50.656;7.568;2022-10-18T07:18:10;17.33;;;5.40;;
5616;SDS011;2830;50.656;7.568;2022-10-18T07:20:37;18.20;;;5.47;;
5616;SDS011;2830;50.656;7.568;2022-10-18T07:23:04;15.87;;;4.83;;
5616;SDS011;2830;50.656;7.568;2022-10-18T07:25:33;21.88;;;5.32;;
5616;SDS011;2830;50.656;7.568;2022-10-18T07:28:00;14.47;;;4.33;;
5616;SDS011;2830;50.656;7.568;2022-10-18T07:30:27;16.77;;;4.80;;
5616;SDS011;2830;50.656;7.568;2022-10-18T07:32:57;16.05;;;5.10;;
5616;SDS011;2830;50.656;7.568;2022-10-18T07:35:23;14.77;;;4.60;;
5616;SDS011;2830;50.656;7.568;2022-10-18T07:37:51;17.53;;;5.23;;
5616;SDS011;2830;50.656;7.568;2022-10-18T07:40:17;16.40;;;4.73;;
5616;SDS011;2830;50.656;7.568;2022-10-18T07:42:44;16.93;;;6.00;;
5616;SDS011;2830;50.656;7.568;2022-10-18T07:45:11;15.07;;;5.30;;
5616;SDS011;2830;50.656;7.568;2022-10-18T07:47:38;14.20;;;4.50;;
5616;SDS011;2830;50.656;7.568;2022-10-18T07:50:06;16.67;;;4.20;;
5616;SDS011;2830;50.656;7.568;2022-10-18T07:52:32;15.68;;;4.00;;
5616;SDS011;2830;50.656;7.568;2022-10-18T07:54:59;16.40;;;4.43;;
5616;SDS011;2830;50.656;7.568;2022-10-18T07:57:28;16.17;;;4.60;;
5616;SDS011;2830;50.656;7.568;2022-10-18T07:59:55;15.80;;;4.35;;
5616;SDS011;2830;50.656;7.568;2022-10-18T08:02:22;14.70;;;4.50;;
5616;SDS011;2830;50.656;7.568;2022-10-18T08:04:49;14.00;;;4.10;;
5616;SDS011;2830;50.656;7.568;2022-10-18T08:07:16;13.70;;;4.23;;
5616;SDS011;2830;50.656;7.568;2022-10-18T08:09:43;14.17;;;4.43;;
5616;SDS011;2830;50.656;7.568;2022-10-18T08:12:09;18.50;;;4.00;;
5616;SDS011;2830;50.656;7.568;2022-10-18T08:14:36;16.02;;;4.70;;
5616;SDS011;2830;50.656;7.568;2022-10-18T08:17:03;13.50;;;4.50;;
5616;SDS011;2830;50.656;7.568;2022-10-18T08:19:29;12.88;;;3.65;;
5616;SDS011;2830;50.656;7.568;2022-10-18T08:21:56;18.00;;;5.03;;
5616;SDS011;2830;50.656;7.568;2022-10-18T08:24:22;15.80;;;5.47;;
5616;SDS011;2830;50.656;7.568;2022-10-18T08:26:49;13.93;;;4.80;;
5616;SDS011;2830;50.656;7.568;2022-10-18T08:29:16;13.40;;;4.63;;
5616;SDS011;2830;50.656;7.568;2022-10-18T08:31:49;18.30;;;4.47;;
5616;SDS011;2830;50.656;7.568;2022-10-18T08:34:16;13.77;;;3.90;;
5616;SDS011;2830;50.656;7.568;2022-10-18T08:36:45;12.80;;;3.40;;
5616;SDS011;2830;50.656;7.568;2022-10-18T08:39:11;15.13;;;4.30;;
5616;SDS011;2830;50.656;7.568;2022-10-18T08:44:29;13.10;;;4.10;;
5616;SDS011;2830;50.656;7.568;2022-10-18T08:46:58;15.20;;;4.23;;
5616;SDS011;2830;50.656;7.568;2022-10-18T08:49:27;13.73;;;4.33;;
5616;SDS011;2830;50.656;7.568;2022-10-18T08:52:01;12.67;;;3.70;;
5616;SDS011;2830;50.656;7.568;2022-10-18T08:54:36;16.97;;;3.77;;
5616;SDS011;2830;50.656;7.568;2022-10-18T08:57:11;12.47;;;3.30;;
5616;SDS011;2830;50.656;7.568;2022-10-18T08:59:41;11.03;;;2.70;;
5616;SDS011;2830;50.656;7.568;2022-10-18T09:05:00;10.67;;;2.50;;
5616;SDS011;2830;50.656;7.568;2022-10-18T09:07:35;12.80;;;2.60;;
5616;SDS011;2830;50.656;7.568;2022-10-18T09:10:20;11.37;;;2.77;;
5616;SDS011;2830;50.656;7.568;2022-10-18T09:13:03;13.90;;;3.00;;
5616;SDS011;2830;50.656;7.568;2022-10-18T09:15:57;11.80;;;3.00;;
5616;SDS011;2830;50.656;7.568;2022-10-18T09:27:15;10.00;;;2.15;;
5616;SDS011;2830;50.656;7.568;2022-10-18T09:32:46;11.30;;;2.57;;
5616;SDS011;2830;50.656;7.568;2022-10-18T09:35:20;11.00;;;1.90;;
5616;SDS011;2830;50.656;7.568;2022-10-18T09:37:52;12.27;;;2.67;;
5616;SDS011;2830;50.656;7.568;2022-10-18T09:40:28;11.90;;;2.10;;
5616;SDS011;2830;50.656;7.568;2022-10-18T09:43:02;10.67;;;1.87;;
5616;SDS011;2830;50.656;7.568;2022-10-18T09:45:40;11.63;;;2.55;;
5616;SDS011;2830;50.656;7.568;2022-10-18T09:48:17;12.43;;;3.00;;
5616;SDS011;2830;50.656;7.568;2022-10-18T09:51:02;13.00;;;2.90;;
5616;SDS011;2830;50.656;7.568;2022-10-18T09:56:31;11.97;;;2.30;;
5616;SDS011;2830;50.656;7.568;2022-10-18T09:59:41;13.97;;;2.90;;
5616;SDS011;2830;50.656;7.568;2022-10-18T10:02:03;11.00;;;2.20;;
5616;SDS011;2830;50.656;7.568;2022-10-18T10:04:30;12.90;;;2.60;;
5616;SDS011;2830;50.656;7.568;2022-10-18T10:06:58;11.90;;;2.10;;
5616;SDS011;2830;50.656;7.568;2022-10-18T10:09:30;14.27;;;2.50;;
5616;SDS011;2830;50.656;7.568;2022-10-18T10:12:21;11.70;;;2.30;;
5616;SDS011;2830;50.656;7.568;2022-10-18T10:14:52;11.48;;;2.25;;
5616;SDS011;2830;50.656;7.568;2022-10-18T10:17:28;11.23;;;1.70;;
5616;SDS011;2830;50.656;7.568;2022-10-18T10:20:12;12.60;;;1.97;;
5616;SDS011;2830;50.656;7.568;2022-10-18T10:22:47;13.50;;;2.10;;
5616;SDS011;2830;50.656;7.568;2022-10-18T10:25:33;15.32;;;2.40;;
5616;SDS011;2830;50.656;7.568;2022-10-18T10:28:05;15.20;;;2.43;;
5616;SDS011;2830;50.656;7.568;2022-10-18T10:30:40;12.77;;;2.57;;
5616;SDS011;2830;50.656;7.568;2022-10-18T10:33:27;13.00;;;3.47;;
5616;SDS011;2830;50.656;7.568;2022-10-18T10:35:57;12.60;;;3.50;;
5616;SDS011;2830;50.656;7.568;2022-10-18T10:38:25;16.70;;;4.97;;
5616;SDS011;2830;50.656;7.568;2022-10-18T10:40:54;14.87;;;4.63;;
5616;SDS011;2830;50.656;7.568;2022-10-18T10:43:31;15.87;;;5.27;;
5616;SDS011;2830;50.656;7.568;2022-10-18T10:51:38;14.30;;;3.77;;
5616;SDS011;2830;50.656;7.568;2022-10-18T10:54:15;15.20;;;4.40;;
5616;SDS011;2830;50.656;7.568;2022-10-18T10:59:43;12.30;;;3.53;;
5616;SDS011;2830;50.656;7.568;2022-10-18T11:04:52;14.13;;;5.53;;
5616;SDS011;2830;50.656;7.568;2022-10-18T11:07:39;13.63;;;4.72;;
5616;SDS011;2830;50.656;7.568;2022-10-18T11:10:12;13.73;;;5.23;;
5616;SDS011;2830;50.656;7.568;2022-10-18T11:20:32;17.43;;;5.67;;
5616;SDS011;2830;50.656;7.568;2022-10-18T11:23:07;17.85;;;5.60;;
5616;SDS011;2830;50.656;7.568;2022-10-18T11:28:34;17.07;;;6.43;;
5616;SDS011;2830;50.656;7.568;2022-10-18T11:34:14;12.70;;;4.77;;
5616;SDS011;2830;50.656;7.568;2022-10-18T11:37:30;14.20;;;4.90;;
5616;SDS011;2830;50.656;7.568;2022-10-18T11:40:29;16.00;;;5.53;;
5616;SDS011;2830;50.656;7.568;2022-10-18T11:43:11;15.10;;;4.93;;
5616;SDS011;2830;50.656;7.568;2022-10-18T11:49:25;17.03;;;6.40;;
5616;SDS011;2830;50.656;7.568;2022-10-18T11:52:07;25.10;;;6.80;;
5616;SDS011;2830;50.656;7.568;2022-10-18T12:05:48;15.10;;;6.50;;
5616;SDS011;2830;50.656;7.568;2022-10-18T12:08:17;13.63;;;5.83;;
5616;SDS011;2830;50.656;7.568;2022-10-18T12:10:53;18.10;;;7.00;;
5616;SDS011;2830;50.656;7.568;2022-10-18T12:13:45;14.40;;;6.10;;
5616;SDS011;2830;50.656;7.568;2022-10-18T12:16:23;13.10;;;4.70;;
5616;SDS011;2830;50.656;7.568;2022-10-18T12:19:18;14.05;;;4.55;;
5616;SDS011;2830;50.656;7.568;2022-10-18T12:21:53;16.03;;;4.73;;
5616;SDS011;2830;50.656;7.568;2022-10-18T12:24:24;17.27;;;5.00;;
5616;SDS011;2830;50.656;7.568;2022-10-18T12:26:59;13.67;;;4.90;;
5616;SDS011;2830;50.656;7.568;2022-10-18T12:29:29;14.95;;;5.20;;
5616;SDS011;2830;50.656;7.568;2022-10-18T12:32:06;14.50;;;5.70;;
5616;SDS011;2830;50.656;7.568;2022-10-18T12:34:41;12.50;;;5.07;;
5616;SDS011;2830;50.656;7.568;2022-10-18T12:37:18;12.80;;;4.90;;
5616;SDS011;2830;50.656;7.568;2022-10-18T12:39:58;12.93;;;4.53;;
5616;SDS011;2830;50.656;7.568;2022-10-18T12:42:41;15.93;;;6.53;;
5616;SDS011;2830;50.656;7.568;2022-10-18T12:45:23;14.93;;;5.53;;
5616;SDS011;2830;50.656;7.568;2022-10-18T12:48:16;17.80;;;6.30;;
5616;SDS011;2830;50.656;7.568;2022-10-18T12:51:21;13.90;;;5.00;;
5616;SDS011;2830;50.656;7.568;2022-10-18T12:53:53;19.42;;;4.40;;
5616;SDS011;2830;50.656;7.568;2022-10-18T12:56:38;12.98;;;4.28;;
5616;SDS011;2830;50.656;7.568;2022-10-18T13:09:37;17.13;;;7.43;;
5616;SDS011;2830;50.656;7.568;2022-10-18T13:17:41;18.17;;;8.60;;
5616;SDS011;2830;50.656;7.568;2022-10-18T13:28:51;17.60;;;7.50;;
5616;SDS011;2830;50.656;7.568;2022-10-18T13:31:27;15.93;;;7.80;;
5616;SDS011;2830;50.656;7.568;2022-10-18T13:34:16;19.17;;;9.00;;
5616;SDS011;2830;50.656;7.568;2022-10-18T13:37:01;18.50;;;8.10;;
5616;SDS011;2830;50.656;7.568;2022-10-18T13:39:45;14.33;;;5.93;;
5616;SDS011;2830;50.656;7.568;2022-10-18T13:42:26;15.18;;;6.63;;
5616;SDS011;2830;50.656;7.568;2022-10-18T13:45:41;16.67;;;8.90;;
5616;SDS011;2830;50.656;7.568;2022-10-18T13:50:52;18.45;;;7.07;;
5616;SDS011;2830;50.656;7.568;2022-10-18T13:56:14;18.50;;;10.07;;
5616;SDS011;2830;50.656;7.568;2022-10-18T14:07:50;18.60;;;8.70;;
5616;SDS011;2830;50.656;7.568;2022-10-18T14:10:41;18.40;;;8.65;;
5616;SDS011;2830;50.656;7.568;2022-10-18T14:14:02;22.65;;;7.78;;
5616;SDS011;2830;50.656;7.568;2022-10-18T14:16:32;19.20;;;8.40;;
5616;SDS011;2830;50.656;7.568;2022-10-18T14:19:01;18.33;;;7.43;;
5616;SDS011;2830;50.656;7.568;2022-10-18T14:24:36;18.40;;;7.60;;
5616;SDS011;2830;50.656;7.568;2022-10-18T14:27:15;15.63;;;6.30;;
5616;SDS011;2830;50.656;7.568;2022-10-18T14:29:46;17.10;;;7.70;;
5616;SDS011;2830;50.656;7.568;2022-10-18T14:32:21;18.13;;;7.43;;
5616;SDS011;2830;50.656;7.568;2022-10-18T14:34:53;18.93;;;8.80;;
5616;SDS011;2830;50.656;7.568;2022-10-18T14:37:41;19.57;;;9.47;;
5616;SDS011;2830;50.656;7.568;2022-10-18T14:42:55;21.20;;;9.57;;
5616;SDS011;2830;50.656;7.568;2022-10-18T14:45:31;20.70;;;9.93;;
5616;SDS011;2830;50.656;7.568;2022-10-18T14:48:32;21.67;;;10.00;;
5616;SDS011;2830;50.656;7.568;2022-10-18T14:50:55;21.50;;;10.93;;
5616;SDS011;2830;50.656;7.568;2022-10-18T14:53:26;21.67;;;10.60;;
5616;SDS011;2830;50.656;7.568;2022-10-18T14:55:59;22.57;;;10.83;;
5616;SDS011;2830;50.656;7.568;2022-10-18T14:58:30;21.17;;;10.80;;
5616;SDS011;2830;50.656;7.568;2022-10-18T15:01:00;23.50;;;11.73;;
5616;SDS011;2830;50.656;7.568;2022-10-18T15:03:27;26.48;;;13.43;;
5616;SDS011;2830;50.656;7.568;2022-10-18T15:06:03;24.43;;;13.30;;
5616;SDS011;2830;50.656;7.568;2022-10-18T15:08:40;21.93;;;10.83;;
5616;SDS011;2830;50.656;7.568;2022-10-18T15:11:09;27.07;;;14.53;;
5616;SDS011;2830;50.656;7.568;2022-10-18T15:13:47;25.33;;;12.50;;
5616;SDS011;2830;50.656;7.568;2022-10-18T15:16:22;24.00;;;12.20;;
5616;SDS011;2830;50.656;7.568;2022-10-18T15:19:26;26.13;;;13.17;;
5616;SDS011;2830;50.656;7.568;2022-10-18T15:22:02;26.40;;;12.27;;
5616;SDS011;2830;50.656;7.568;2022-10-18T15:25:02;23.20;;;11.10;;
5616;SDS011;2830;50.656;7.568;2022-10-18T15:27:34;29.77;;;14.48;;
5616;SDS011;2830;50.656;7.568;2022-10-18T15:30:06;25.93;;;13.80;;
5616;SDS011;2830;50.656;7.568;2022-10-18T15:32:45;27.70;;;15.03;;
5616;SDS011;2830;50.656;7.568;2022-10-18T15:38:00;26.47;;;14.03;;
5616;SDS011;2830;50.656;7.568;2022-10-18T15:40:38;32.63;;;13.27;;
5616;SDS011;2830;50.656;7.568;2022-10-18T15:45:55;30.43;;;13.30;;
5616;SDS011;2830;50.656;7.568;2022-10-18T15:48:31;30.73;;;12.90;;
5616;SDS011;2830;50.656;7.568;2022-10-18T15:51:01;30.20;;;15.57;;
5616;SDS011;2830;50.656;7.568;2022-10-18T15:53:52;30.43;;;15.20;;
5616;SDS011;2830;50.656;7.568;2022-10-18T15:58:56;30.48;;;15.65;;
5616;SDS011;2830;50.656;7.568;2022-10-18T16:01:29;35.50;;;17.87;;
5616;SDS011;2830;50.656;7.568;2022-10-18T16:04:00;32.13;;;15.90;;
5616;SDS011;2830;50.656;7.568;2022-10-18T16:06:32;40.27;;;19.73;;
5616;SDS011;2830;50.656;7.568;2022-10-18T16:09:02;32.13;;;15.27;;
5616;SDS011;2830;50.656;7.568;2022-10-18T16:11:29;24.70;;;13.85;;
5616;SDS011;2830;50.656;7.568;2022-10-18T16:13:56;26.23;;;13.48;;
5616;SDS011;2830;50.656;7.568;2022-10-18T16:16:26;31.97;;;14.33;;
5616;SDS011;2830;50.656;7.568;2022-10-18T16:18:54;28.87;;;14.13;;
5616;SDS011;2830;50.656;7.568;2022-10-18T16:21:22;31.70;;;17.17;;
5616;SDS011;2830;50.656;7.568;2022-10-18T16:23:57;33.23;;;16.43;;
5616;SDS011;2830;50.656;7.568;2022-10-18T16:26:24;36.47;;;15.70;;
5616;SDS011;2830;50.656;7.568;2022-10-18T16:28:51;33.90;;;17.30;;
5616;SDS011;2830;50.656;7.568;2022-10-18T16:31:20;37.05;;;15.55;;
5616;SDS011;2830;50.656;7.568;2022-10-18T16:33:49;41.10;;;19.13;;
5616;SDS011;2830;50.656;7.568;2022-10-18T16:36:18;37.40;;;15.93;;
5616;SDS011;2830;50.656;7.568;2022-10-18T16:38:46;46.73;;;17.20;;
5616;SDS011;2830;50.656;7.568;2022-10-18T16:41:13;36.07;;;16.63;;
5616;SDS011;2830;50.656;7.568;2022-10-18T16:43:44;33.83;;;18.02;;
5616;SDS011;2830;50.656;7.568;2022-10-18T16:46:16;34.83;;;19.30;;
5616;SDS011;2830;50.656;7.568;2022-10-18T16:48:45;36.67;;;17.77;;
5616;SDS011;2830;50.656;7.568;2022-10-18T16:51:12;39.83;;;20.37;;
5616;SDS011;2830;50.656;7.568;2022-10-18T16:53:39;54.23;;;27.03;;
5616;SDS011;2830;50.656;7.568;2022-10-18T16:56:10;51.83;;;24.40;;
5616;SDS011;2830;50.656;7.568;2022-10-18T16:58:39;53.10;;;23.45;;
5616;SDS011;2830;50.656;7.568;2022-10-18T17:01:08;42.97;;;21.63;;
5616;SDS011;2830;50.656;7.568;2022-10-18T17:03:40;50.83;;;22.17;;
5616;SDS011;2830;50.656;7.568;2022-10-18T17:06:26;46.17;;;21.00;;
5616;SDS011;2830;50.656;7.568;2022-10-18T17:08:54;47.07;;;23.23;;
5616;SDS011;2830;50.656;7.568;2022-10-18T17:11:23;45.37;;;22.83;;
5616;SDS011;2830;50.656;7.568;2022-10-18T17:13:51;40.90;;;20.97;;
5616;SDS011;2830;50.656;7.568;2022-10-18T17:18:47;42.10;;;20.30;;
5616;SDS011;2830;50.656;7.568;2022-10-18T17:21:14;43.33;;;20.97;;
5616;SDS011;2830;50.656;7.568;2022-10-18T17:23:41;44.20;;;19.20;;
5616;SDS011;2830;50.656;7.568;2022-10-18T17:26:29;43.57;;;20.50;;
5616;SDS011;2830;50.656;7.568;2022-10-18T17:28:57;40.33;;;19.20;;
5616;SDS011;2830;50.656;7.568;2022-10-18T17:31:30;46.83;;;19.90;;
5616;SDS011;2830;50.656;7.568;2022-10-18T17:33:57;53.47;;;21.10;;
5616;SDS011;2830;50.656;7.568;2022-10-18T17:36:26;45.10;;;20.70;;
5616;SDS011;2830;50.656;7.568;2022-10-18T17:38:53;50.13;;;20.80;;
5616;SDS011;2830;50.656;7.568;2022-10-18T17:41:20;41.67;;;19.83;;
5616;SDS011;2830;50.656;7.568;2022-10-18T17:43:47;45.60;;;21.73;;
5616;SDS011;2830;50.656;7.568;2022-10-18T17:46:14;54.83;;;22.50;;